Time;durP1;ratioP1;P1;durP2;ratioP2;P2;SDS_P1;SDS_P2;PMS_P1;PMS_P2;Temp;Humidity;BMP_temperature;BMP_pressure;BME280_temperature;BME280_humidity;BME280_pressure;Samples;Min_cycle;Max_cycle;Signal;HPM_P1;HPM_P2
2023/12/26 00:01:46;;;;;;;23.65;15.40;;;;;;;4.44;100.00;99956.25;4895290;29;20039;-78
2023/12/26 00:04:12;;;;;;;22.88;15.25;;;;;;;4.47;100.00;99952.63;4908953;29;20036;-77
2023/12/26 00:06:40;;;;;;;22.92;14.55;;;;;;;4.53;100.00;99958.31;4895483;29;20071;-78
2023/12/26 00:09:05;;;;;;;22.10;14.60;;;;;;;4.58;100.00;99960.66;4894966;29;20406;-77
2023/12/26 00:11:31;;;;;;;20.30;13.88;;;;;;;4.62;100.00;99956.06;4893733;29;20044;-78
2023/12/26 00:13:56;;;;;;;20.05;14.18;;;;;;;4.60;100.00;99957.91;4893985;29;20033;-77
2023/12/26 00:16:22;;;;;;;21.40;15.10;;;;;;;4.54;100.00;99953.91;4894779;29;20036;-77
2023/12/26 00:18:47;;;;;;;21.45;13.95;;;;;;;4.43;100.00;99959.81;4895047;29;20064;-77
2023/12/26 00:21:13;;;;;;;22.67;13.75;;;;;;;4.50;100.00;99953.28;4894611;29;20068;-78
2023/12/26 00:23:38;;;;;;;19.73;13.82;;;;;;;4.50;100.00;99958.50;4895096;29;20048;-76
2023/12/26 00:26:04;;;;;;;24.40;14.93;;;;;;;4.37;100.00;99947.09;4894518;29;20087;-77
2023/12/26 00:28:30;;;;;;;23.27;14.63;;;;;;;4.35;100.00;99959.44;4894824;29;20040;-77
2023/12/26 00:30:55;;;;;;;20.88;13.57;;;;;;;4.21;100.00;99964.66;4901277;29;20052;-77
2023/12/26 00:33:21;;;;;;;22.92;14.65;;;;;;;4.17;100.00;99968.41;4905176;29;20457;-76
2023/12/26 00:35:46;;;;;;;28.20;14.07;;;;;;;4.26;100.00;99964.38;4894639;29;20051;-78
2023/12/26 00:38:12;;;;;;;17.75;12.20;;;;;;;4.24;100.00;99961.84;4904247;29;20127;-77
2023/12/26 00:40:41;;;;;;;20.85;13.70;;;;;;;4.23;100.00;99970.63;4894634;29;20437;-77
2023/12/26 00:43:07;;;;;;;23.05;14.15;;;;;;;4.27;100.00;99966.91;4893713;29;20145;-77
2023/12/26 00:45:34;;;;;;;27.65;14.02;;;;;;;4.28;100.00;99968.59;4894429;29;20242;-77
2023/12/26 00:48:00;;;;;;;23.02;14.00;;;;;;;4.35;100.00;99969.91;4893153;29;20051;-77
2023/12/26 00:50:25;;;;;;;17.85;12.27;;;;;;;4.35;100.00;99969.91;4893168;29;20477;-77
2023/12/26 00:52:51;;;;;;;22.80;13.50;;;;;;;4.39;100.00;99968.78;4894283;29;20496;-76
2023/12/26 00:55:16;;;;;;;16.20;13.55;;;;;;;4.44;100.00;99969.31;4892448;29;20036;-77
2023/12/26 00:57:42;;;;;;;18.85;12.52;;;;;;;4.43;100.00;99972.88;4894680;29;20048;-77
2023/12/26 01:00:08;;;;;;;19.05;12.90;;;;;;;4.38;100.00;99959.25;4906917;29;20478;-78
2023/12/26 01:02:33;;;;;;;20.55;13.57;;;;;;;4.24;100.00;99961.03;4894757;29;20044;-77
2023/12/26 01:04:59;;;;;;;22.67;12.60;;;;;;;4.21;100.00;99967.28;4906754;29;20100;-77
2023/12/26 01:07:24;;;;;;;19.90;13.23;;;;;;;4.17;100.00;99978.00;4894432;29;20121;-77
2023/12/26 01:09:51;;;;;;;20.08;14.32;;;;;;;4.10;100.00;99964.47;4893186;29;20128;-77
2023/12/26 01:12:18;;;;;;;21.27;14.52;;;;;;;4.06;100.00;99969.00;4890756;29;20060;-76
2023/12/26 01:14:43;;;;;;;24.65;14.13;;;;;;;3.90;100.00;99967.41;4893160;29;20116;-77
2023/12/26 01:17:09;;;;;;;24.73;14.93;;;;;;;3.99;100.00;99962.50;4894427;29;20497;-78
2023/12/26 01:19:34;;;;;;;19.65;13.90;;;;;;;4.02;100.00;99971.91;4897058;29;20044;-77
2023/12/26 01:22:00;;;;;;;18.55;13.48;;;;;;;4.05;100.00;99967.38;4903734;29;20044;-77
2023/12/26 01:24:25;;;;;;;16.40;13.10;;;;;;;4.05;100.00;99975.19;4893901;29;20068;-77
2023/12/26 01:26:51;;;;;;;17.42;14.05;;;;;;;3.87;100.00;99972.84;4893815;29;20108;-76
2023/12/26 01:29:16;;;;;;;18.58;14.13;;;;;;;3.85;100.00;99978.13;4904818;29;20518;-77
2023/12/26 01:31:42;;;;;;;19.48;13.88;;;;;;;3.86;100.00;99979.81;4893906;29;20024;-77
2023/12/26 01:34:07;;;;;;;19.77;15.15;;;;;;;3.88;100.00;99970.13;4893422;29;20054;-77
2023/12/26 01:36:33;;;;;;;20.08;14.88;;;;;;;3.80;100.00;99981.94;4892651;29;20545;-77
2023/12/26 01:38:58;;;;;;;17.88;14.52;;;;;;;3.90;100.00;99977.84;4893473;29;20033;-77
2023/12/26 01:41:25;;;;;;;18.17;14.52;;;;;;;3.55;100.00;99979.91;4893615;29;20123;-76
2023/12/26 01:43:50;;;;;;;21.60;14.63;;;;;;;3.67;100.00;99987.88;4893857;29;20047;-76
2023/12/26 01:46:16;;;;;;;19.33;14.70;;;;;;;3.79;100.00;99983.72;4893182;29;20410;-77
2023/12/26 01:48:45;;;;;;;23.20;15.07;;;;;;;3.75;100.00;99987.44;4892296;29;20101;-76
2023/12/26 01:51:15;;;;;;;19.15;14.85;;;;;;;3.85;100.00;99992.97;4892734;29;20128;-77
2023/12/26 01:53:41;;;;;;;19.43;14.67;;;;;;;3.83;100.00;99994.84;4893664;29;20043;-78
2023/12/26 01:56:10;;;;;;;19.50;15.00;;;;;;;3.81;100.00;99994.06;4893139;29;20036;-78
2023/12/26 01:58:37;;;;;;;25.73;15.75;;;;;;;3.82;100.00;100000.97;4898475;29;20040;-77
2023/12/26 02:01:04;;;;;;;20.13;14.85;;;;;;;3.83;100.00;99997.44;4889025;29;20144;-77
2023/12/26 02:03:30;;;;;;;21.45;15.32;;;;;;;3.79;100.00;99996.75;4898634;29;20571;-77
2023/12/26 02:06:22;;;;;;;18.15;13.40;;;;;;;3.74;100.00;99997.97;4893250;29;20111;-76
2023/12/26 02:08:49;;;;;;;18.95;14.63;;;;;;;3.77;100.00;99992.59;4901863;29;20583;-78
2023/12/26 02:11:14;;;;;;;21.38;13.98;;;;;;;3.78;100.00;99989.84;4902339;29;20052;-77
2023/12/26 02:13:40;;;;;;;17.48;14.32;;;;;;;3.78;100.00;99995.06;4910004;29;20047;-77
2023/12/26 02:16:21;;;;;;;19.50;13.68;;;;;;;3.64;100.00;99992.44;4901754;29;20035;-77
2023/12/26 02:18:47;;;;;;;19.73;14.70;;;;;;;3.60;100.00;99994.38;4911103;29;20032;-77
2023/12/26 02:21:13;;;;;;;20.45;14.55;;;;;;;3.59;100.00;99984.84;4909735;29;20040;-78
2023/12/26 02:23:40;;;;;;;18.85;14.23;;;;;;;3.51;100.00;99991.47;4910348;29;20083;-77
2023/12/26 02:26:07;;;;;;;20.48;14.57;;;;;;;3.45;100.00;99983.97;4909958;29;20563;-78
2023/12/26 02:28:34;;;;;;;19.27;14.85;;;;;;;3.35;100.00;99983.69;4911119;29;20051;-77
2023/12/26 02:31:02;;;;;;;19.08;15.10;;;;;;;3.32;100.00;99986.44;4909460;29;20830;-78
2023/12/26 02:33:33;;;;;;;19.15;15.55;;;;;;;3.33;100.00;99977.69;4895749;29;20048;-77
2023/12/26 02:35:59;;;;;;;19.60;15.85;;;;;;;3.35;100.00;99986.28;4913356;29;20512;-77
2023/12/26 02:38:24;;;;;;;18.77;15.52;;;;;;;3.46;100.00;99983.91;4913677;29;20111;-77
2023/12/26 02:40:52;;;;;;;19.98;15.75;;;;;;;3.58;100.00;99983.19;4913655;29;20043;-77
2023/12/26 02:43:25;;;;;;;21.25;15.43;;;;;;;3.64;100.00;99985.47;4913682;29;20028;-77
2023/12/26 02:45:51;;;;;;;19.20;15.35;;;;;;;3.77;100.00;99982.13;4900484;29;20056;-77
2023/12/26 02:48:16;;;;;;;19.98;15.15;;;;;;;3.85;100.00;99979.91;4896724;29;20167;-77
2023/12/26 02:50:43;;;;;;;22.13;17.20;;;;;;;3.94;100.00;99985.44;4896990;29;20473;-78
2023/12/26 02:53:09;;;;;;;18.40;15.43;;;;;;;3.97;100.00;99987.84;4896914;29;20481;-77
2023/12/26 02:55:34;;;;;;;22.30;15.77;;;;;;;4.08;100.00;99976.78;4896786;29;20087;-77
2023/12/26 02:57:59;;;;;;;21.83;15.20;;;;;;;4.16;100.00;99971.94;4896405;29;20025;-77
2023/12/26 03:00:25;;;;;;;19.77;15.60;;;;;;;4.15;100.00;99975.47;4894047;29;20067;-77
2023/12/26 03:02:50;;;;;;;16.58;14.70;;;;;;;4.09;100.00;99978.44;4896627;29;20033;-78
2023/12/26 03:05:16;;;;;;;20.38;15.85;;;;;;;4.08;100.00;99975.00;4898919;29;20486;-76
2023/12/26 03:07:41;;;;;;;20.23;15.27;;;;;;;4.07;100.00;99975.94;4895634;29;20183;-77
2023/12/26 03:10:09;;;;;;;20.58;15.90;;;;;;;4.04;100.00;99972.66;4896160;29;20037;-78
2023/12/26 03:12:36;;;;;;;21.00;15.02;;;;;;;4.00;100.00;99971.19;4895338;29;20055;-77
2023/12/26 03:15:02;;;;;;;19.85;14.45;;;;;;;3.98;100.00;99975.66;4895535;29;20032;-77
2023/12/26 03:17:28;;;;;;;18.30;14.40;;;;;;;3.87;100.00;99967.59;4896304;29;20049;-77
2023/12/26 03:19:54;;;;;;;15.60;14.00;;;;;;;3.60;100.00;99973.50;4895984;29;20113;-77
2023/12/26 03:22:20;;;;;;;17.67;13.88;;;;;;;3.52;100.00;99978.34;4896605;29;20371;-77
2023/12/26 03:24:46;;;;;;;16.52;14.82;;;;;;;3.34;100.00;99978.53;4895156;29;20049;-76
2023/12/26 03:27:16;;;;;;;18.40;14.63;;;;;;;3.42;100.00;99977.16;4906938;29;20037;-78
2023/12/26 03:29:42;;;;;;;20.30;15.63;;;;;;;3.58;100.00;99975.38;4896562;29;20104;-79
2023/12/26 03:32:09;;;;;;;17.45;14.27;;;;;;;3.43;100.00;99984.06;4897062;29;20036;-77
2023/12/26 03:34:34;;;;;;;20.15;14.93;;;;;;;3.53;100.00;99979.19;4899538;29;20426;-77
2023/12/26 03:37:00;;;;;;;18.00;15.05;;;;;;;3.25;100.00;99979.88;4895860;29;20067;-77
2023/12/26 03:39:25;;;;;;;16.17;14.30;;;;;;;3.05;100.00;99972.34;4894923;29;20084;-77
2023/12/26 03:41:51;;;;;;;18.52;14.95;;;;;;;3.11;100.00;99972.00;4895290;29;20484;-76
2023/12/26 03:44:17;;;;;;;17.73;14.65;;;;;;;3.14;100.00;99971.81;4910679;29;20072;-77
2023/12/26 03:46:44;;;;;;;17.52;13.57;;;;;;;3.15;100.00;99968.31;4906441;29;20036;-77
2023/12/26 03:49:10;;;;;;;16.65;13.73;;;;;;;3.07;100.00;99966.09;4903467;29;20301;-77
2023/12/26 03:51:36;;;;;;;15.32;13.75;;;;;;;3.21;100.00;99967.94;4894629;29;20029;-77
2023/12/26 03:54:03;;;;;;;17.65;14.07;;;;;;;3.29;100.00;99960.56;4893903;29;20037;-77
2023/12/26 03:56:31;;;;;;;17.75;14.30;;;;;;;3.22;100.00;99954.00;4896335;29;20036;-78
2023/12/26 03:58:57;;;;;;;16.38;13.80;;;;;;;3.23;100.00;99960.91;4895391;29;20392;-78
2023/12/26 04:01:23;;;;;;;18.23;14.07;;;;;;;3.26;100.00;99960.72;4892445;29;20505;-77
2023/12/26 04:03:49;;;;;;;15.70;14.10;;;;;;;3.42;100.00;99961.50;4908774;29;20112;-78
2023/12/26 04:06:15;;;;;;;15.43;13.82;;;;;;;3.49;100.00;99952.41;4902948;29;20085;-77
2023/12/26 04:08:41;;;;;;;17.25;13.88;;;;;;;3.62;100.00;99950.78;4905747;29;20036;-76
2023/12/26 04:11:06;;;;;;;18.92;13.60;;;;;;;3.69;100.00;99954.72;4908737;29;20037;-77
2023/12/26 04:13:32;;;;;;;17.30;14.05;;;;;;;3.67;100.00;99948.72;4905771;29;20031;-77
2023/12/26 04:15:58;;;;;;;17.23;14.15;;;;;;;3.70;100.00;99945.97;4893402;29;20060;-77
2023/12/26 04:18:24;;;;;;;14.30;12.77;;;;;;;3.64;100.00;99946.31;4893750;29;20445;-77
2023/12/26 04:20:50;;;;;;;14.98;13.43;;;;;;;3.57;100.00;99942.38;4895231;29;20028;-77
2023/12/26 04:23:16;;;;;;;16.95;14.07;;;;;;;3.59;100.00;99945.72;4895216;29;20041;-78
2023/12/26 04:25:41;;;;;;;15.02;13.45;;;;;;;3.53;100.00;99935.66;4909520;29;20033;-78
2023/12/26 04:28:07;;;;;;;16.38;13.63;;;;;;;3.51;100.00;99929.69;4893327;29;20445;-77
2023/12/26 04:30:33;;;;;;;15.25;13.68;;;;;;;3.42;100.00;99940.63;4893456;29;20182;-77
2023/12/26 04:32:58;;;;;;;16.50;14.73;;;;;;;3.45;100.00;99944.84;4892959;29;20556;-77
2023/12/26 04:35:24;;;;;;;14.65;13.07;;;;;;;3.52;100.00;99952.25;4906555;29;20041;-77
2023/12/26 04:37:49;;;;;;;15.88;13.43;;;;;;;3.49;100.00;99955.00;4894644;29;20032;-76
2023/12/26 04:40:15;;;;;;;14.25;12.80;;;;;;;3.26;100.00;99951.13;4894672;29;20087;-77
2023/12/26 04:42:41;;;;;;;16.17;13.85;;;;;;;3.36;100.00;99951.41;4893435;29;20393;-77
2023/12/26 04:45:07;;;;;;;15.75;14.25;;;;;;;3.50;100.00;99958.47;4893045;29;20039;-76
2023/12/26 04:47:33;;;;;;;14.88;13.38;;;;;;;3.46;100.00;99952.59;4894696;29;20073;-76
2023/12/26 04:49:59;;;;;;;17.08;13.57;;;;;;;3.51;100.00;99950.56;4894031;29;20424;-76
2023/12/26 04:52:25;;;;;;;15.88;14.38;;;;;;;3.53;100.00;99961.75;4894661;29;20096;-77
2023/12/26 04:54:50;;;;;;;15.13;13.63;;;;;;;3.55;100.00;99962.50;4893840;29;20072;-78
2023/12/26 04:57:16;;;;;;;14.68;12.32;;;;;;;3.64;100.00;99951.53;4894027;29;20099;-77
2023/12/26 04:59:42;;;;;;;14.85;13.40;;;;;;;3.65;100.00;99966.22;4894677;29;20051;-77
2023/12/26 05:02:07;;;;;;;16.02;14.25;;;;;;;3.63;100.00;99955.06;4894183;29;20040;-76
2023/12/26 05:04:34;;;;;;;14.02;12.55;;;;;;;3.65;100.00;99958.41;4907301;29;20029;-77
2023/12/26 05:06:59;;;;;;;16.40;14.05;;;;;;;3.61;100.00;99956.91;4891376;29;20484;-76
2023/12/26 05:09:24;;;;;;;15.18;13.13;;;;;;;3.57;100.00;99960.66;4894197;29;20481;-76
2023/12/26 05:11:51;;;;;;;14.07;12.73;;;;;;;3.60;100.00;99957.84;4877686;29;20040;-77
2023/12/26 05:14:18;;;;;;;15.07;13.57;;;;;;;3.42;100.00;99956.28;4894395;29;20037;-77
2023/12/26 05:16:45;;;;;;;14.07;12.63;;;;;;;3.63;100.00;99955.06;4894534;29;20032;-77
2023/12/26 05:19:10;;;;;;;15.05;13.15;;;;;;;3.71;100.00;99958.06;4908210;29;20429;-77
2023/12/26 05:21:36;;;;;;;14.98;13.38;;;;;;;3.33;100.00;99962.03;4892252;29;20070;-76
2023/12/26 05:24:03;;;;;;;14.65;13.15;;;;;;;3.48;100.00;99961.16;4892296;29;20056;-77
2023/12/26 05:26:28;;;;;;;14.73;13.27;;;;;;;3.47;100.00;99962.09;4893884;29;20477;-77
2023/12/26 05:28:54;;;;;;;14.82;13.32;;;;;;;3.56;100.00;99963.34;4908261;29;20135;-77
2023/12/26 05:31:20;;;;;;;14.82;13.02;;;;;;;3.57;100.00;99970.25;4907980;29;20040;-77
2023/12/26 05:33:46;;;;;;;15.18;13.48;;;;;;;3.70;100.00;99961.63;4905280;29;20037;-77
2023/12/26 05:36:12;;;;;;;14.57;13.07;;;;;;;3.75;100.00;99963.09;4907550;29;20096;-77
2023/12/26 05:38:37;;;;;;;15.43;13.82;;;;;;;3.37;100.00;99963.53;4893733;29;20040;-77
2023/12/26 05:41:04;;;;;;;14.68;13.13;;;;;;;3.49;100.00;99957.63;4901889;29;20512;-77
2023/12/26 05:43:31;;;;;;;14.73;13.43;;;;;;;3.58;100.00;99962.31;4892504;29;20045;-77
2023/12/26 05:45:56;;;;;;;15.20;13.70;;;;;;;3.66;100.00;99973.13;4892052;29;20032;-77
2023/12/26 05:48:22;;;;;;;15.73;14.00;;;;;;;3.64;100.00;99972.41;4892770;29;20052;-77
2023/12/26 05:50:48;;;;;;;15.23;13.73;;;;;;;3.63;100.00;99970.72;4908231;29;20047;-77
2023/12/26 05:53:14;;;;;;;14.88;13.38;;;;;;;3.63;100.00;99967.28;4899645;29;20036;-77
2023/12/26 05:55:40;;;;;;;16.10;14.43;;;;;;;3.67;100.00;99972.22;4908154;29;20092;-77
2023/12/26 05:58:05;;;;;;;15.80;13.98;;;;;;;3.71;100.00;99980.72;4907995;29;20028;-76
2023/12/26 06:00:31;;;;;;;16.17;14.32;;;;;;;3.66;100.00;99986.19;4891295;29;20401;-77
2023/12/26 06:02:57;;;;;;;15.82;14.23;;;;;;;3.66;100.00;99988.81;4891956;29;20096;-77
2023/12/26 06:05:23;;;;;;;16.42;14.48;;;;;;;3.63;100.00;99991.59;4892038;29;20047;-76
2023/12/26 06:07:48;;;;;;;17.58;14.95;;;;;;;3.68;100.00;99986.09;4892105;29;20029;-78
2023/12/26 06:10:14;;;;;;;15.52;13.80;;;;;;;3.65;100.00;99994.13;4891464;29;20091;-77
2023/12/26 06:12:40;;;;;;;18.88;14.68;;;;;;;3.63;100.00;99994.22;4903919;29;20113;-78
2023/12/26 06:15:06;;;;;;;18.02;14.98;;;;;;;3.58;100.00;99993.63;4907324;29;20033;-77
2023/12/26 06:17:32;;;;;;;16.77;14.13;;;;;;;3.56;100.00;99995.50;4893853;29;20044;-78
2023/12/26 06:19:58;;;;;;;19.48;14.68;;;;;;;3.40;100.00;99994.69;4902667;29;20051;-78
2023/12/26 06:22:24;;;;;;;16.17;14.57;;;;;;;3.52;100.00;99999.22;4892298;29;20123;-78
2023/12/26 06:24:49;;;;;;;18.15;14.15;;;;;;;3.59;100.00;99997.91;4893409;29;20501;-76
2023/12/26 06:27:15;;;;;;;17.70;14.98;;;;;;;3.67;100.00;99997.47;4892082;29;20025;-77
2023/12/26 06:29:40;;;;;;;16.55;14.85;;;;;;;3.67;100.00;99993.09;4893233;29;20044;-77
2023/12/26 06:32:07;;;;;;;19.50;14.65;;;;;;;3.72;100.00;99996.28;4907258;29;20052;-78
2023/12/26 06:34:33;;;;;;;16.95;15.15;;;;;;;3.68;100.00;99994.78;4907633;29;20032;-77
2023/12/26 06:36:59;;;;;;;16.88;14.02;;;;;;;3.56;100.00;100000.69;4875946;29;20048;-77
2023/12/26 06:39:24;;;;;;;18.45;14.15;;;;;;;3.67;100.00;100006.16;4891622;29;20119;-77
2023/12/26 06:41:50;;;;;;;18.15;14.38;;;;;;;3.74;100.00;100003.19;4891640;29;20036;-77
2023/12/26 06:44:16;;;;;;;18.70;14.73;;;;;;;3.77;100.00;100003.84;4907423;29;20024;-77
2023/12/26 06:46:42;;;;;;;18.92;15.57;;;;;;;3.76;100.00;100007.41;4903125;29;20041;-79
2023/12/26 06:49:16;;;;;;;16.25;14.48;;;;;;;3.58;100.00;100014.50;4891447;29;20033;-76
2023/12/26 06:51:43;;;;;;;17.10;14.80;;;;;;;3.52;100.00;100014.03;4891753;29;20032;-78
2023/12/26 06:54:11;;;;;;;16.02;14.30;;;;;;;3.66;100.00;100017.50;4886100;29;20108;-78
2023/12/26 06:56:37;;;;;;;19.77;15.70;;;;;;;3.77;100.00;100023.91;4891906;29;20119;-77
2023/12/26 06:59:02;;;;;;;17.70;14.38;;;;;;;3.88;100.00;100027.56;4907105;29;20330;-76
2023/12/26 07:01:28;;;;;;;17.70;13.70;;;;;;;3.97;100.00;100023.56;4891410;29;20032;-76
2023/12/26 07:03:53;;;;;;;17.35;14.50;;;;;;;3.86;100.00;100024.19;4892663;29;20354;-77
2023/12/26 07:06:19;;;;;;;17.40;14.60;;;;;;;3.92;100.00;100038.66;4904252;29;20086;-78
2023/12/26 07:08:45;;;;;;;16.90;14.15;;;;;;;3.87;100.00;100030.25;4907434;29;20590;-78
2023/12/26 07:11:11;;;;;;;17.67;15.68;;;;;;;3.76;100.00;100037.88;4891311;29;20461;-77
2023/12/26 07:13:36;;;;;;;19.58;14.32;;;;;;;3.64;100.00;100040.25;4892819;29;20029;-77
2023/12/26 07:16:03;;;;;;;17.42;14.35;;;;;;;3.74;100.00;100042.34;4892247;29;20397;-77
2023/12/26 07:18:28;;;;;;;16.30;14.55;;;;;;;3.78;100.00;100047.28;4892730;29;20036;-78
2023/12/26 07:20:54;;;;;;;17.42;15.32;;;;;;;3.90;100.00;100045.75;4895704;29;20370;-77
2023/12/26 07:23:19;;;;;;;18.00;15.68;;;;;;;4.00;100.00;100041.69;4896555;29;20084;-77
2023/12/26 07:25:45;;;;;;;17.08;15.35;;;;;;;3.81;100.00;100046.28;4892332;29;20043;-77
2023/12/26 07:28:14;;;;;;;18.20;14.75;;;;;;;3.93;100.00;100054.25;4894329;29;20126;-77
2023/12/26 07:30:40;;;;;;;16.55;14.82;;;;;;;3.99;100.00;100061.72;4895158;29;20045;-76
2023/12/26 07:33:05;;;;;;;18.30;16.42;;;;;;;3.99;100.00;100060.88;4895845;29;20043;-77
2023/12/26 07:35:34;;;;;;;18.30;15.10;;;;;;;3.95;100.00;100065.44;4896335;29;20029;-77
2023/12/26 07:38:00;;;;;;;20.27;15.50;;;;;;;3.89;100.00;100064.97;4895685;29;20106;-78
2023/12/26 07:40:25;;;;;;;19.75;15.25;;;;;;;4.00;100.00;100070.41;4896219;29;20084;-78
2023/12/26 07:42:51;;;;;;;17.88;14.82;;;;;;;4.05;100.00;100082.25;4896223;29;20040;-77
2023/12/26 07:45:18;;;;;;;18.10;15.48;;;;;;;4.10;100.00;100076.78;4895879;29;20039;-78
2023/12/26 07:47:44;;;;;;;19.48;15.60;;;;;;;4.01;100.00;100075.53;4895792;29;20033;-77
2023/12/26 07:50:09;;;;;;;18.27;16.38;;;;;;;3.93;100.00;100087.34;4895650;29;21159;-77
2023/12/26 07:52:35;;;;;;;23.83;15.23;;;;;;;3.99;100.00;100087.00;4895667;29;20167;-77
2023/12/26 07:55:00;;;;;;;18.50;14.95;;;;;;;4.08;100.00;100096.91;4895223;29;20496;-77
2023/12/26 07:57:25;;;;;;;18.67;15.45;;;;;;;3.98;100.00;100090.53;4895373;29;20041;-77
2023/12/26 07:59:51;;;;;;;17.67;15.80;;;;;;;4.04;100.00;100090.19;4895517;29;20028;-77
2023/12/26 08:02:16;;;;;;;19.40;15.57;;;;;;;4.15;100.00;100094.78;4895266;29;20037;-76
2023/12/26 08:04:42;;;;;;;20.90;15.82;;;;;;;4.17;100.00;100091.16;4895564;29;20044;-79
2023/12/26 08:07:07;;;;;;;20.50;16.52;;;;;;;4.16;100.00;100094.69;4895384;29;20044;-78
2023/12/26 08:09:34;;;;;;;19.05;16.30;;;;;;;4.21;100.00;100099.66;4895548;29;20040;-78
2023/12/26 08:11:59;;;;;;;21.17;16.33;;;;;;;4.35;100.00;100090.09;4895199;29;20104;-77
2023/12/26 08:14:25;;;;;;;19.95;15.98;;;;;;;4.32;100.00;100095.47;4896139;29;20485;-77
2023/12/26 08:16:50;;;;;;;18.40;15.48;;;;;;;4.40;100.00;100087.19;4906106;29;20047;-78
2023/12/26 08:19:16;;;;;;;24.58;16.77;;;;;;;4.43;100.00;100093.06;4895581;29;20037;-78
2023/12/26 08:21:41;;;;;;;18.55;16.65;;;;;;;4.57;100.00;100094.03;4895797;29;20102;-78
2023/12/26 08:24:07;;;;;;;21.77;17.10;;;;;;;4.61;100.00;100098.13;4895306;29;20380;-79
2023/12/26 08:26:32;;;;;;;19.95;16.02;;;;;;;4.58;100.00;100095.72;4895612;29;20072;-76
2023/12/26 08:28:58;;;;;;;19.25;15.57;;;;;;;4.59;100.00;100102.63;4895190;29;20035;-77
2023/12/26 08:31:24;;;;;;;22.17;16.08;;;;;;;4.66;100.00;100104.75;4894810;29;20515;-77
2023/12/26 08:33:50;;;;;;;21.58;16.38;;;;;;;4.67;100.00;100100.38;4895155;29;20043;-77
2023/12/26 08:36:15;;;;;;;19.13;16.88;;;;;;;4.82;100.00;100102.94;4895264;29;20048;-78
2023/12/26 08:38:41;;;;;;;18.63;16.35;;;;;;;4.91;100.00;100110.19;4895870;29;20351;-78
2023/12/26 08:41:09;;;;;;;20.83;16.63;;;;;;;4.93;100.00;100107.50;4895092;29;20055;-78
2023/12/26 08:43:35;;;;;;;21.48;17.20;;;;;;;5.01;100.00;100115.69;4895249;29;20028;-78
2023/12/26 08:46:00;;;;;;;21.02;16.52;;;;;;;4.96;100.00;100117.75;4894313;29;20503;-77
2023/12/26 08:48:26;;;;;;;23.42;16.65;;;;;;;5.00;100.00;100124.50;4893791;29;20025;-77
2023/12/26 08:50:52;;;;;;;25.55;17.30;;;;;;;5.07;100.00;100128.41;4894683;29;20492;-77
2023/12/26 08:53:19;;;;;;;18.20;16.15;;;;;;;5.17;100.00;100136.53;4894936;29;20043;-77
2023/12/26 08:55:46;;;;;;;18.90;16.65;;;;;;;5.21;100.00;100133.63;4894993;29;20346;-78
2023/12/26 08:58:12;;;;;;;17.50;15.70;;;;;;;5.29;100.00;100130.56;4894518;29;20123;-78
2023/12/26 09:00:38;;;;;;;20.08;16.35;;;;;;;5.35;100.00;100141.47;4894655;29;20029;-78
2023/12/26 09:03:04;;;;;;;21.90;16.83;;;;;;;5.40;100.00;100140.34;4894588;29;20032;-77
2023/12/26 09:05:29;;;;;;;17.85;15.95;;;;;;;5.18;100.00;100136.44;4894517;29;20156;-78
2023/12/26 09:07:55;;;;;;;21.73;16.33;;;;;;;5.13;100.00;100141.09;4894628;29;20120;-78
2023/12/26 09:10:20;;;;;;;21.33;16.50;;;;;;;5.15;100.00;100128.78;4894635;29;20044;-78
2023/12/26 09:12:46;;;;;;;24.58;17.58;;;;;;;5.23;100.00;100142.25;4894609;29;20025;-78
2023/12/26 09:15:11;;;;;;;19.35;17.15;;;;;;;5.35;100.00;100141.47;4893622;29;20041;-77
2023/12/26 09:17:37;;;;;;;18.90;16.75;;;;;;;5.41;100.00;100144.66;4894290;29;20037;-77
2023/12/26 09:20:03;;;;;;;21.05;18.02;;;;;;;5.47;100.00;100139.03;4894174;29;20087;-77
2023/12/26 09:22:29;;;;;;;23.83;17.88;;;;;;;5.58;100.00;100141.81;4894709;29;20033;-78
2023/12/26 09:24:54;;;;;;;24.50;17.02;;;;;;;5.70;100.00;100141.03;4894095;29;20084;-78
2023/12/26 09:27:20;;;;;;;21.67;17.52;;;;;;;5.78;100.00;100138.75;4894105;29;20041;-77
2023/12/26 09:29:45;;;;;;;20.25;16.13;;;;;;;5.93;100.00;100139.59;4890897;29;20080;-79
2023/12/26 09:32:11;;;;;;;21.83;17.65;;;;;;;6.01;100.00;100146.00;4894131;29;20048;-78
2023/12/26 09:34:36;;;;;;;23.02;18.65;;;;;;;6.11;100.00;100152.34;4894211;29;20071;-77
2023/12/26 09:37:02;;;;;;;23.52;17.65;;;;;;;6.23;100.00;100136.75;4894270;29;20096;-78
2023/12/26 09:39:28;;;;;;;20.00;16.92;;;;;;;6.31;100.00;100137.06;4893809;29;20032;-77
2023/12/26 09:41:56;;;;;;;20.95;17.38;;;;;;;6.42;100.00;100142.47;4893264;29;20029;-77
2023/12/26 09:44:22;;;;;;;20.92;16.60;;;;;;;6.42;100.00;100145.06;4893971;29;20107;-77
2023/12/26 09:46:47;;;;;;;23.98;17.55;;;;;;;6.41;100.00;100153.88;4893821;29;20548;-77
2023/12/26 09:49:14;;;;;;;23.05;17.45;;;;;;;6.42;100.00;100147.69;4892471;29;20415;-77
2023/12/26 09:51:46;;;;;;;20.17;17.52;;;;;;;6.49;100.00;100144.53;4892951;29;20036;-77
2023/12/26 09:54:17;;;;;;;21.77;17.77;;;;;;;6.38;100.00;100144.41;4893516;29;20055;-77
2023/12/26 09:56:45;;;;;;;24.50;17.88;;;;;;;6.56;100.00;100142.34;4894313;29;20043;-77
2023/12/26 09:59:12;;;;;;;26.90;17.48;;;;;;;6.72;100.00;100153.47;4892271;29;20036;-77
2023/12/26 10:01:37;;;;;;;23.90;18.15;;;;;;;6.75;100.00;100147.19;4891948;29;20509;-77
2023/12/26 10:04:03;;;;;;;22.17;16.98;;;;;;;6.74;100.00;100140.28;4893484;29;20088;-75
2023/12/26 10:06:29;;;;;;;20.92;17.50;;;;;;;6.82;100.00;100146.69;4894126;29;20041;-78
2023/12/26 10:08:55;;;;;;;23.50;17.25;;;;;;;6.86;100.00;100140.28;4893401;29;20109;-78
2023/12/26 10:11:21;;;;;;;18.20;15.68;;;;;;;6.83;100.00;100124.72;4893894;29;20465;-79
2023/12/26 10:13:53;;;;;;;26.67;17.25;;;;;;;6.96;100.00;100125.56;4894041;29;20040;-79
2023/12/26 10:16:19;;;;;;;24.35;16.73;;;;;;;6.99;100.00;100125.38;4891067;29;20048;-79
2023/12/26 10:18:46;;;;;;;20.95;17.33;;;;;;;7.13;100.00;100127.03;4896519;29;20028;-77
2023/12/26 10:21:13;;;;;;;20.42;16.05;;;;;;;7.21;100.00;100129.13;4893355;29;20037;-79
2023/12/26 10:23:38;;;;;;;21.50;15.63;;;;;;;7.27;100.00;100136.56;4892919;29;20039;-77
2023/12/26 10:26:04;;;;;;;22.20;16.38;;;;;;;7.31;100.00;100135.41;4893158;29;20032;-78
2023/12/26 10:28:36;;;;;;;17.42;14.98;;;;;;;7.33;100.00;100133.50;4893837;29;20770;-79
2023/12/26 10:31:10;;;;;;;17.98;14.98;;;;;;;7.42;100.00;100138.13;4892449;29;20050;-78
2023/12/26 10:33:35;;;;;;;18.77;15.35;;;;;;;7.53;100.00;100143.47;4893667;29;20033;-79
2023/12/26 10:36:05;;;;;;;21.42;15.90;;;;;;;7.48;100.00;100137.66;4893091;29;20043;-78
2023/12/26 10:38:31;;;;;;;19.50;14.17;;;;;;;7.44;100.00;100141.47;4892516;29;20045;-78
2023/12/26 10:41:00;;;;;;;20.00;14.52;;;;;;;7.51;100.00;100132.22;4893223;29;20508;-79
2023/12/26 10:43:29;;;;;;;25.38;15.68;;;;;;;7.58;100.00;100136.09;4905339;29;20056;-79
2023/12/26 10:45:57;;;;;;;21.83;16.52;;;;;;;7.58;100.00;100127.38;4892944;29;20473;-77
2023/12/26 10:48:27;;;;;;;21.65;15.90;;;;;;;7.58;100.00;100127.38;4893397;29;20056;-78
2023/12/26 10:50:55;;;;;;;22.30;15.30;;;;;;;7.65;100.00;100124.19;4893298;29;20123;-80
2023/12/26 10:53:23;;;;;;;23.23;15.85;;;;;;;7.53;100.00;100122.44;4893045;29;20127;-79
2023/12/26 10:55:50;;;;;;;19.92;15.52;;;;;;;7.51;100.00;100111.19;4896189;29;20032;-79
2023/12/26 10:58:23;;;;;;;19.15;15.93;;;;;;;7.67;100.00;100101.25;4896780;29;20438;-79
2023/12/26 11:01:16;;;;;;;22.88;15.40;;;;;;;7.81;100.00;100103.75;4895928;29;20037;-78
2023/12/26 13:52:15;;;;;;;26.05;21.10;;;;;;;9.60;100.00;99940.69;4890015;29;20087;-79
2023/12/26 13:54:41;;;;;;;27.00;20.35;;;;;;;9.66;100.00;99956.78;4893739;29;20119;-79
2023/12/26 13:57:06;;;;;;;27.92;20.50;;;;;;;9.70;100.00;99962.66;4893472;29;20839;-78
2023/12/26 13:59:32;;;;;;;29.35;20.88;;;;;;;9.72;100.00;99981.81;4894159;29;20037;-78